Time;durP1;ratioP1;P1;durP2;ratioP2;P2;SDS_P1;SDS_P2;PMS_P1;PMS_P2;Temp;Humidity;BMP_temperature;BMP_pressure;BME280_temperature;BME280_humidity;BME280_pressure;Samples;Min_cycle;Max_cycle;Signal;HPM_P1;HPM_P2
2023/05/09 00:01:23;;;;;;;3.20;1.50;;;;;;;14.44;76.20;99899.34;5038702;28;20518;-55
2023/05/09 00:03:50;;;;;;;3.83;1.73;;;;;;;14.43;76.38;99903.72;5043083;28;20601;-59
2023/05/09 00:06:18;;;;;;;4.25;1.83;;;;;;;14.42;76.17;99906.38;5039731;28;20041;-55
2023/05/09 00:08:45;;;;;;;4.97;1.85;;;;;;;14.40;76.14;99909.84;5043871;28;20704;-59
2023/05/09 00:11:11;;;;;;;3.42;1.60;;;;;;;14.39;76.61;99905.53;5044489;28;20123;-59
2023/05/09 00:13:38;;;;;;;3.25;1.48;;;;;;;14.39;76.23;99908.13;5043232;28;20523;-55
2023/05/09 00:16:05;;;;;;;2.83;1.63;;;;;;;14.39;76.63;99910.72;5043557;28;20481;-51
2023/05/09 00:18:32;;;;;;;3.35;1.88;;;;;;;14.39;76.12;99902.91;5038379;28;20045;-56
2023/05/09 00:21:01;;;;;;;3.72;1.88;;;;;;;14.37;76.46;99904.72;5040939;28;20045;-52
2023/05/09 00:23:29;;;;;;;4.30;2.50;;;;;;;14.38;76.40;99901.22;5035885;28;20056;-57
2023/05/09 00:25:57;;;;;;;4.05;1.88;;;;;;;14.36;76.30;99896.94;5036965;28;20061;-58
2023/05/09 00:28:23;;;;;;;4.80;2.25;;;;;;;14.33;76.57;99897.84;5035939;28;20057;-55
2023/05/09 00:30:50;;;;;;;3.67;1.52;;;;;;;14.33;76.33;99896.97;5038446;28;20080;-53
2023/05/09 00:33:16;;;;;;;3.40;1.55;;;;;;;14.30;76.33;99887.50;5040363;28;20044;-56
2023/05/09 00:35:43;;;;;;;3.70;2.13;;;;;;;14.30;76.34;99886.63;5039025;28;20516;-49
2023/05/09 00:38:10;;;;;;;4.88;1.90;;;;;;;14.30;76.72;99886.63;5040849;28;20128;-59
2023/05/09 00:40:37;;;;;;;3.08;1.35;;;;;;;14.30;77.13;99886.63;5038833;28;20138;-53
2023/05/09 00:43:04;;;;;;;4.45;2.05;;;;;;;14.30;76.40;99878.81;5042793;28;20122;-56
2023/05/09 00:45:30;;;;;;;4.25;2.10;;;;;;;14.30;76.17;99874.47;5039746;28;20081;-55
2023/05/09 00:47:57;;;;;;;5.85;2.72;;;;;;;14.30;77.06;99871.84;5040952;28;20452;-56
2023/05/09 00:50:24;;;;;;;4.18;2.15;;;;;;;14.31;77.19;99863.16;5040877;28;20080;-54
2023/05/09 00:52:50;;;;;;;4.28;1.85;;;;;;;14.32;76.70;99856.19;5041930;28;20080;-54
2023/05/09 00:55:18;;;;;;;4.35;2.40;;;;;;;14.32;76.91;99858.81;5043413;28;20083;-53
2023/05/09 00:57:44;;;;;;;3.88;2.38;;;;;;;14.32;76.89;99849.22;5046105;28;20052;-58
2023/05/09 01:00:11;;;;;;;4.88;1.92;;;;;;;14.33;76.57;99856.16;5045835;28;20454;-53
2023/05/09 01:02:41;;;;;;;4.70;1.90;;;;;;;14.34;76.59;99852.66;5045635;28;20067;-54
2023/05/09 01:05:09;;;;;;;6.70;2.53;;;;;;;14.33;76.76;99844.88;5040635;28;20142;-56
2023/05/09 01:07:44;;;;;;;4.00;1.73;;;;;;;14.33;76.85;99842.28;5038444;28;20064;-54
2023/05/09 01:13:03;;;;;;;8.80;3.95;;;;;;;14.65;76.62;99838.94;5064103;27;20958;-57
2023/05/09 01:18:24;;;;;;;4.88;2.28;;;;;;;14.34;77.58;99837.03;5035153;27;20402;-55
2023/05/09 01:21:00;;;;;;;4.82;2.65;;;;;;;14.36;77.33;99834.41;5008272;28;20125;-56
2023/05/09 01:31:56;;;;;;;8.77;3.95;;;;;;;14.30;77.29;99824.97;5077248;27;20449;-56
2023/05/09 01:34:25;;;;;;;8.80;3.85;;;;;;;14.29;77.29;99823.25;5061232;28;20099;-54
2023/05/09 01:36:57;;;;;;;6.75;3.92;;;;;;;14.29;76.94;99822.41;5054381;28;20080;-53
2023/05/09 01:39:25;;;;;;;6.95;4.00;;;;;;;14.27;77.19;99819.81;5079068;28;20197;-54
2023/05/09 01:41:55;;;;;;;8.18;4.32;;;;;;;14.29;77.40;99825.88;5077137;28;20044;-56
2023/05/09 01:44:23;;;;;;;9.48;4.15;;;;;;;14.29;77.07;99823.25;5086411;28;20090;-50
2023/05/09 01:46:54;;;;;;;8.80;3.83;;;;;;;14.30;76.92;99819.75;5074466;28;20053;-53
2023/05/09 01:49:22;;;;;;;8.10;3.65;;;;;;;14.29;77.10;99812.84;5080371;28;20080;-57
2023/05/09 01:51:50;;;;;;;7.68;4.40;;;;;;;14.28;77.06;99811.09;5078905;28;20075;-52
2023/05/09 01:54:18;;;;;;;7.63;4.72;;;;;;;14.28;77.19;99805.91;5081769;28;20071;-51
2023/05/09 01:56:45;;;;;;;7.03;3.38;;;;;;;14.27;76.55;99804.19;5085372;28;20473;-55
2023/05/09 01:59:14;;;;;;;8.10;4.10;;;;;;;14.26;77.27;99802.47;5079984;28;20045;-54
2023/05/09 02:01:44;;;;;;;10.68;3.35;;;;;;;14.26;77.21;99799.88;5079267;28;20263;-55
2023/05/09 02:04:15;;;;;;;7.35;4.03;;;;;;;14.26;77.12;99805.09;5080256;28;20063;-56
2023/05/09 02:06:43;;;;;;;8.55;4.40;;;;;;;14.23;77.50;99805.16;5086351;28;20062;-53
2023/05/09 02:09:11;;;;;;;8.25;4.38;;;;;;;14.22;76.92;99800.84;5081912;28;20098;-56
2023/05/09 02:11:38;;;;;;;8.20;4.45;;;;;;;14.20;77.13;99800.00;5076108;28;20060;-54
2023/05/09 02:14:05;;;;;;;6.30;3.40;;;;;;;14.17;76.94;99794.84;5074052;28;20534;-56
2023/05/09 02:16:31;;;;;;;8.23;4.65;;;;;;;14.13;76.65;99792.34;5082903;28;20085;-51
2023/05/09 02:18:58;;;;;;;9.35;4.97;;;;;;;14.11;77.01;99793.25;5074041;28;20040;-59
2023/05/09 02:21:25;;;;;;;8.27;4.03;;;;;;;14.08;77.52;99794.16;5080389;28;20492;-54
2023/05/09 02:23:54;;;;;;;7.43;3.88;;;;;;;14.08;76.94;99790.72;5073841;28;20053;-49
2023/05/09 02:26:21;;;;;;;9.55;4.90;;;;;;;14.07;77.22;99786.38;5073747;28;20518;-58
2023/05/09 02:28:48;;;;;;;6.65;3.33;;;;;;;14.03;77.78;99788.22;5074485;28;20411;-57
2023/05/09 02:31:17;;;;;;;8.02;4.38;;;;;;;14.01;77.28;99789.97;5076624;28;20122;-53
2023/05/09 02:33:46;;;;;;;8.20;4.85;;;;;;;14.00;77.86;99796.06;5077849;28;20494;-52
2023/05/09 02:36:13;;;;;;;7.97;4.30;;;;;;;13.99;77.62;99794.38;5077168;28;20040;-49
2023/05/09 02:38:41;;;;;;;7.22;4.60;;;;;;;13.97;77.29;99781.38;5074490;28;20129;-54
2023/05/09 02:41:12;;;;;;;9.63;4.97;;;;;;;13.94;76.90;99783.19;5078721;28;20079;-56
2023/05/09 02:43:39;;;;;;;15.48;6.20;;;;;;;13.91;77.06;99775.47;5061379;28;20106;-49
2023/05/09 02:46:06;;;;;;;9.88;3.58;;;;;;;13.87;76.85;99774.66;5066977;28;20619;-57
2023/05/09 02:48:34;;;;;;;9.60;5.88;;;;;;;13.83;77.83;99766.06;5063274;28;20041;-54
2023/05/09 02:51:01;;;;;;;8.60;4.63;;;;;;;13.79;77.22;99760.94;5061679;28;20071;-52
2023/05/09 02:53:27;;;;;;;9.13;4.88;;;;;;;13.75;76.87;99761.00;5062299;28;20053;-56
2023/05/09 02:55:54;;;;;;;7.32;4.15;;;;;;;13.69;77.49;99753.34;5066115;28;20132;-54
2023/05/09 02:58:20;;;;;;;12.05;5.40;;;;;;;13.66;77.44;99755.13;5067477;28;20116;-51
2023/05/09 03:00:47;;;;;;;8.52;4.57;;;;;;;13.61;77.96;99750.88;5064219;28;20552;-54
2023/05/09 03:03:16;;;;;;;7.97;3.28;;;;;;;13.59;77.60;99750.06;5065951;28;20396;-56
2023/05/09 03:05:43;;;;;;;7.38;4.15;;;;;;;13.56;77.11;99749.25;5061403;28;20051;-54
2023/05/09 03:08:10;;;;;;;8.63;4.70;;;;;;;13.52;77.06;99750.19;5066927;28;20090;-54
2023/05/09 03:10:36;;;;;;;9.18;4.88;;;;;;;13.48;77.42;99752.84;5067231;28;20672;-53
2023/05/09 03:13:03;;;;;;;9.75;5.20;;;;;;;13.45;77.63;99752.03;5059300;28;20079;-56
2023/05/09 03:15:30;;;;;;;10.40;5.13;;;;;;;13.42;77.02;99752.09;5057013;28;20045;-55
2023/05/09 03:17:56;;;;;;;9.85;4.82;;;;;;;13.39;77.50;99752.13;5062027;28;20068;-51
2023/05/09 03:20:25;;;;;;;10.38;5.63;;;;;;;13.35;76.92;99752.19;5063533;28;20037;-56
2023/05/09 03:22:51;;;;;;;13.00;5.72;;;;;;;13.34;76.96;99765.25;5065810;28;20048;-53
2023/05/09 03:25:18;;;;;;;9.85;4.47;;;;;;;13.31;77.63;99760.09;5064174;28;20056;-53
2023/05/09 03:27:44;;;;;;;10.52;4.70;;;;;;;13.29;77.09;99754.94;5067434;28;20091;-55
2023/05/09 03:30:12;;;;;;;8.48;4.57;;;;;;;13.27;76.97;99759.28;5062749;28;20044;-51
2023/05/09 03:32:38;;;;;;;7.70;4.10;;;;;;;13.24;77.14;99751.53;5065317;28;20053;-50
2023/05/09 03:35:05;;;;;;;8.50;4.80;;;;;;;13.22;77.62;99762.00;5060692;28;20056;-54
2023/05/09 03:37:32;;;;;;;9.15;4.20;;;;;;;13.19;77.78;99745.56;5064543;28;20536;-56
2023/05/09 03:39:58;;;;;;;10.52;4.80;;;;;;;13.17;77.42;99752.56;5063283;28;20714;-55
2023/05/09 03:42:25;;;;;;;7.80;4.57;;;;;;;13.13;77.06;99750.91;5059154;28;20044;-57
2023/05/09 03:44:52;;;;;;;7.75;3.08;;;;;;;13.08;77.06;99749.22;5060847;28;20439;-56
2023/05/09 03:47:18;;;;;;;8.98;4.38;;;;;;;13.06;77.15;99745.81;5061414;28;20114;-55
2023/05/09 03:49:45;;;;;;;9.48;4.30;;;;;;;13.06;77.72;99747.53;5057538;28;20522;-55
2023/05/09 03:52:11;;;;;;;10.25;4.65;;;;;;;13.03;77.28;99748.44;5063702;28;20072;-53
2023/05/09 03:54:38;;;;;;;10.55;5.50;;;;;;;13.01;76.97;99750.25;5059853;28;20075;-47
2023/05/09 03:57:05;;;;;;;9.23;4.68;;;;;;;12.98;77.38;99752.88;5056811;28;20497;-52
2023/05/09 03:59:32;;;;;;;10.65;5.07;;;;;;;12.96;78.12;99754.63;5062889;28;20055;-53
2023/05/09 04:01:59;;;;;;;10.98;4.30;;;;;;;12.94;76.92;99752.06;5088276;28;20702;-55
2023/05/09 04:04:27;;;;;;;8.15;3.88;;;;;;;12.93;77.04;99746.88;5085304;28;20040;-54
2023/05/09 04:06:53;;;;;;;12.80;4.45;;;;;;;12.92;77.84;99742.59;5090656;28;20052;-52
2023/05/09 04:09:20;;;;;;;12.40;4.07;;;;;;;12.92;77.33;99739.97;5083485;28;20407;-55
2023/05/09 04:11:47;;;;;;;10.63;4.63;;;;;;;12.93;77.14;99737.34;5085067;28;20055;-57
2023/05/09 04:14:13;;;;;;;10.27;5.28;;;;;;;12.94;77.46;99735.63;5086872;28;20102;-55
2023/05/09 04:16:41;;;;;;;13.27;5.40;;;;;;;12.94;77.63;99736.47;5081948;28;20067;-50
2023/05/09 04:19:07;;;;;;;11.23;5.53;;;;;;;12.95;78.46;99732.13;5086948;28;20741;-55
2023/05/09 04:21:34;;;;;;;13.55;5.18;;;;;;;12.96;78.27;99734.72;5085480;28;20543;-53
2023/05/09 04:24:00;;;;;;;13.45;5.88;;;;;;;12.98;77.14;99732.94;5081345;28;20072;-53
2023/05/09 04:26:28;;;;;;;16.27;5.30;;;;;;;13.00;77.63;99732.91;5084029;28;20105;-51
2023/05/09 04:28:55;;;;;;;17.30;5.57;;;;;;;13.01;78.40;99726.84;5082193;28;20064;-52
2023/05/09 04:31:22;;;;;;;11.35;5.25;;;;;;;13.01;77.97;99721.63;5084231;28;20063;-55
2023/05/09 04:33:48;;;;;;;12.48;5.55;;;;;;;13.01;77.24;99716.44;5081938;28;20135;-52
2023/05/09 04:36:15;;;;;;;12.98;5.03;;;;;;;13.00;78.02;99719.91;5082302;28;20039;-55
2023/05/09 04:38:42;;;;;;;12.10;6.53;;;;;;;12.95;77.87;99707.00;5084280;28;20490;-49
2023/05/09 04:41:09;;;;;;;12.00;5.40;;;;;;;12.94;78.20;99710.47;5083203;28;20071;-52
2023/05/09 04:43:35;;;;;;;13.05;6.03;;;;;;;12.93;78.41;99707.91;5080416;28;20051;-51
2023/05/09 04:46:02;;;;;;;11.40;5.22;;;;;;;12.92;78.23;99704.47;5087088;28;20097;-54
2023/05/09 04:48:28;;;;;;;14.07;5.82;;;;;;;12.91;78.07;99713.16;5088830;28;20079;-50
2023/05/09 04:50:55;;;;;;;15.60;6.30;;;;;;;12.92;78.32;99711.38;5085862;28;20515;-53
2023/05/09 04:53:22;;;;;;;14.00;5.35;;;;;;;12.91;77.62;99714.88;5077857;28;20206;-52
2023/05/09 04:55:48;;;;;;;15.40;6.50;;;;;;;12.93;77.62;99707.91;5059632;28;20076;-49
2023/05/09 04:58:15;;;;;;;13.32;5.95;;;;;;;12.95;78.30;99706.16;5067629;28;20127;-58
2023/05/09 05:00:41;;;;;;;16.35;7.15;;;;;;;12.97;78.50;99709.59;5080643;28;20094;-54
2023/05/09 05:03:08;;;;;;;16.15;6.88;;;;;;;13.01;78.10;99707.78;5084330;28;20048;-50
2023/05/09 05:05:35;;;;;;;12.90;6.20;;;;;;;13.05;77.44;99707.69;5069709;28;20131;-53
2023/05/09 05:08:03;;;;;;;16.90;6.32;;;;;;;13.09;77.55;99704.16;5066391;28;20070;-55
2023/05/09 05:10:30;;;;;;;16.05;6.55;;;;;;;13.14;77.74;99703.22;5063174;28;20664;-50
2023/05/09 05:12:56;;;;;;;16.48;6.38;;;;;;;13.17;78.04;99697.97;5062564;28;20083;-53
2023/05/09 05:15:23;;;;;;;14.82;6.80;;;;;;;13.23;78.08;99695.22;5087034;28;20135;-51
2023/05/09 05:17:49;;;;;;;16.15;6.72;;;;;;;13.29;78.42;99707.25;5090331;28;20079;-50
2023/05/09 05:20:16;;;;;;;17.08;7.00;;;;;;;13.35;78.17;99704.53;5079557;28;20049;-54
2023/05/09 05:22:43;;;;;;;18.98;6.82;;;;;;;13.43;78.38;99701.75;5089103;28;20048;-55
2023/05/09 05:25:10;;;;;;;16.50;7.10;;;;;;;13.51;78.15;99704.25;5086370;28;20047;-52
2023/05/09 05:27:37;;;;;;;18.83;6.38;;;;;;;13.58;78.59;99701.47;5076708;28;20044;-55
2023/05/09 05:30:04;;;;;;;16.08;4.85;;;;;;;13.66;78.12;99703.06;5078786;28;20593;-56
2023/05/09 05:32:30;;;;;;;12.60;5.93;;;;;;;13.70;78.59;99707.31;5066649;28;20044;-57
2023/05/09 05:34:57;;;;;;;14.73;4.53;;;;;;;13.70;78.71;99702.13;5082858;28;20332;-56
2023/05/09 05:37:24;;;;;;;15.23;6.03;;;;;;;13.71;78.57;99701.25;5083359;28;20044;-51
2023/05/09 05:39:50;;;;;;;15.18;6.50;;;;;;;13.71;78.12;99696.03;5092591;28;20098;-56
2023/05/09 05:42:17;;;;;;;13.27;4.95;;;;;;;13.71;77.87;99701.25;5077229;28;20638;-55
2023/05/09 05:44:43;;;;;;;9.82;5.35;;;;;;;13.70;77.98;99694.31;5081673;28;20088;-54
2023/05/09 05:47:10;;;;;;;11.90;4.25;;;;;;;13.71;78.23;99701.25;5081096;28;20637;-56
2023/05/09 05:49:37;;;;;;;13.82;4.93;;;;;;;13.71;77.90;99696.03;5090706;28;20574;-50
2023/05/09 05:52:04;;;;;;;11.60;3.67;;;;;;;13.71;78.84;99696.88;5087596;28;20486;-54
2023/05/09 05:54:30;;;;;;;12.02;5.65;;;;;;;13.73;78.25;99689.91;5087688;28;20174;-57
2023/05/09 05:56:57;;;;;;;12.27;5.78;;;;;;;13.74;78.45;99695.97;5080626;28;20093;-51
2023/05/09 05:59:24;;;;;;;12.80;5.80;;;;;;;13.75;78.81;99697.69;5075660;28;20052;-54
2023/05/09 06:01:50;;;;;;;11.82;5.43;;;;;;;13.74;78.50;99695.97;5063330;28;20068;-54
2023/05/09 06:04:17;;;;;;;11.57;4.75;;;;;;;13.75;78.40;99702.91;5089679;28;20561;-56
2023/05/09 06:06:44;;;;;;;13.68;4.85;;;;;;;13.75;78.73;99697.69;5081421;28;20124;-57
2023/05/09 06:09:11;;;;;;;13.32;5.72;;;;;;;13.75;78.68;99693.31;5080579;28;20088;-55
2023/05/09 06:11:38;;;;;;;13.02;5.45;;;;;;;13.75;78.23;99698.53;5083054;28;20036;-54
2023/05/09 06:14:04;;;;;;;12.18;5.50;;;;;;;13.78;78.87;99697.59;5087618;28;20044;-53
2023/05/09 06:16:31;;;;;;;15.52;6.35;;;;;;;13.80;77.85;99701.03;5078788;28;20072;-51
2023/05/09 06:18:58;;;;;;;17.55;6.25;;;;;;;13.83;77.88;99700.97;5090776;28;20404;-53
2023/05/09 06:21:25;;;;;;;15.52;6.65;;;;;;;13.87;78.57;99692.22;5079093;28;20044;-56
2023/05/09 06:23:51;;;;;;;12.63;5.63;;;;;;;13.91;78.37;99692.97;5083709;28;20097;-52
2023/05/09 06:26:21;;;;;;;13.98;6.63;;;;;;;13.99;78.10;99695.44;5088562;28;20114;-53
2023/05/09 06:28:47;;;;;;;10.50;4.88;;;;;;;14.06;78.54;99699.63;5089565;28;20039;-56
2023/05/09 06:31:14;;;;;;;12.75;6.63;;;;;;;14.11;78.10;99696.88;5084312;28;20082;-59
2023/05/09 06:33:40;;;;;;;11.85;5.95;;;;;;;14.17;78.34;99703.69;5087934;28;20132;-59
2023/05/09 06:36:07;;;;;;;16.13;6.10;;;;;;;14.24;78.57;99707.88;5086032;28;20079;-56
2023/05/09 06:38:34;;;;;;;17.33;6.32;;;;;;;14.27;78.00;99708.69;5083711;28;20571;-52
2023/05/09 06:41:00;;;;;;;14.68;6.78;;;;;;;14.31;78.06;99701.63;5087519;28;20182;-57
2023/05/09 06:43:27;;;;;;;14.05;6.45;;;;;;;14.35;77.78;99697.19;5079044;28;20071;-58
2023/05/09 06:45:53;;;;;;;10.27;5.00;;;;;;;14.41;77.96;99689.25;5084202;28;20047;-53
2023/05/09 06:48:22;;;;;;;13.00;5.35;;;;;;;14.42;77.74;99690.09;5075054;28;20561;-57
2023/05/09 06:50:49;;;;;;;12.32;5.22;;;;;;;14.43;77.59;99689.19;5077294;28;20079;-55
2023/05/09 06:53:15;;;;;;;12.07;5.25;;;;;;;14.42;78.05;99677.06;5075491;28;20099;-56
2023/05/09 06:55:42;;;;;;;10.60;5.03;;;;;;;14.46;77.70;99683.94;5080836;28;20135;-55
2023/05/09 06:58:10;;;;;;;11.02;5.47;;;;;;;14.48;78.17;99687.34;5071961;28;20067;-55
2023/05/09 07:00:37;;;;;;;10.93;5.60;;;;;;;14.51;77.47;99684.66;5072719;28;20055;-53
2023/05/09 07:03:06;;;;;;;10.52;5.07;;;;;;;14.54;77.64;99687.19;5082314;28;20084;-57
2023/05/09 07:05:33;;;;;;;10.07;5.03;;;;;;;14.57;77.55;99689.72;5079218;28;20048;-54
2023/05/09 07:08:00;;;;;;;13.80;5.68;;;;;;;14.59;77.50;99690.53;5074405;28;20044;-55
2023/05/09 07:10:27;;;;;;;12.80;4.97;;;;;;;14.59;77.04;99690.53;5075701;28;20115;-54
2023/05/09 07:12:53;;;;;;;10.38;5.22;;;;;;;14.63;77.13;99691.31;5078346;28;20139;-56
2023/05/09 07:15:20;;;;;;;10.40;5.07;;;;;;;14.65;77.57;99687.78;5061664;28;20146;-59
2023/05/09 07:18:06;;;;;;;10.60;4.70;;;;;;;14.68;76.92;99679.03;5074503;28;20101;-56
2023/05/09 07:20:33;;;;;;;12.82;4.63;;;;;;;14.71;77.38;99684.16;5077523;28;20079;-58
2023/05/09 07:23:01;;;;;;;13.30;4.43;;;;;;;14.76;77.35;99687.50;5077090;28;20056;-53
2023/05/09 07:25:27;;;;;;;9.40;4.95;;;;;;;14.81;77.17;99679.59;5078219;28;20052;-58
2023/05/09 07:27:54;;;;;;;10.02;4.47;;;;;;;14.87;77.05;99684.66;5082690;28;20147;-59
2023/05/09 07:30:21;;;;;;;9.68;4.85;;;;;;;14.92;76.56;99681.91;5066359;28;20070;-54
2023/05/09 07:32:48;;;;;;;10.02;4.10;;;;;;;14.96;76.51;99686.13;5080323;28;20048;-57
2023/05/09 07:35:14;;;;;;;10.35;4.55;;;;;;;15.00;76.83;99679.09;5082769;28;20529;-61
2023/05/09 07:37:41;;;;;;;9.38;4.60;;;;;;;15.02;76.72;99685.97;5081682;28;20055;-57
2023/05/09 07:40:09;;;;;;;8.02;3.90;;;;;;;15.06;76.75;99691.97;5089163;28;20056;-60
2023/05/09 07:42:36;;;;;;;11.88;4.78;;;;;;;15.08;76.50;99682.34;5085313;28;20048;-57
2023/05/09 07:45:04;;;;;;;9.90;4.40;;;;;;;15.13;76.82;99685.69;5092167;28;20040;-54
2023/05/09 07:47:32;;;;;;;11.93;4.28;;;;;;;15.22;76.54;99688.94;5084455;28;20512;-60
2023/05/09 07:49:58;;;;;;;13.32;4.80;;;;;;;15.28;76.35;99688.78;5087016;28;20094;-55
2023/05/09 07:52:25;;;;;;;9.70;3.58;;;;;;;15.31;76.56;99693.91;5086988;28;20089;-58
2023/05/09 07:54:53;;;;;;;13.85;4.25;;;;;;;15.35;76.65;99692.91;5088826;28;20558;-58
2023/05/09 07:57:20;;;;;;;9.20;4.55;;;;;;;15.40;76.76;99691.03;5093620;28;20474;-60
2023/05/09 07:59:46;;;;;;;8.15;5.18;;;;;;;15.46;76.03;99695.22;5090785;28;20044;-55
2023/05/09 08:02:13;;;;;;;8.27;4.45;;;;;;;15.52;76.09;99696.78;5090134;28;20060;-59
2023/05/09 08:04:41;;;;;;;7.47;3.63;;;;;;;15.54;75.92;99700.22;5075805;28;20431;-56
2023/05/09 08:07:08;;;;;;;10.32;3.80;;;;;;;15.57;75.89;99700.13;5082574;28;20044;-58
2023/05/09 08:09:35;;;;;;;7.78;4.15;;;;;;;15.61;75.23;99688.72;5083185;28;20109;-55
2023/05/09 08:12:02;;;;;;;6.15;4.13;;;;;;;15.67;75.35;99691.13;5081866;28;20056;-59
2023/05/09 08:14:31;;;;;;;13.38;4.45;;;;;;;15.76;75.86;99689.13;5090655;28;20047;-53
2023/05/09 08:16:57;;;;;;;7.45;3.67;;;;;;;15.81;75.24;99682.03;5078827;28;20630;-58
2023/05/09 08:19:25;;;;;;;8.18;3.38;;;;;;;15.88;75.62;99678.31;5084321;28;20086;-55
2023/05/09 08:21:52;;;;;;;8.15;4.07;;;;;;;15.92;75.26;99669.50;5072603;28;20048;-58
2023/05/09 08:24:19;;;;;;;7.28;3.45;;;;;;;15.96;74.89;99669.41;5078998;28;20040;-58
2023/05/09 08:26:47;;;;;;;9.32;3.95;;;;;;;15.98;75.05;99662.41;5065706;28;20052;-55
2023/05/09 08:29:16;;;;;;;9.30;4.15;;;;;;;15.98;74.71;99662.41;5083517;28;20550;-61
2023/05/09 08:31:43;;;;;;;6.72;3.50;;;;;;;15.98;74.92;99658.03;5077069;28;20549;-55
2023/05/09 08:34:10;;;;;;;5.93;3.85;;;;;;;15.99;74.13;99664.97;5084761;28;20052;-59
2023/05/09 08:36:39;;;;;;;5.97;3.13;;;;;;;16.00;73.97;99650.13;5080221;28;20054;-60
2023/05/09 08:39:06;;;;;;;5.78;3.03;;;;;;;16.02;74.22;99643.13;5078438;28;20102;-58
2023/05/09 08:41:34;;;;;;;6.40;2.95;;;;;;;16.06;74.26;99639.50;5082111;28;20139;-57
2023/05/09 08:44:03;;;;;;;5.57;2.95;;;;;;;16.09;73.00;99635.94;5078161;28;20056;-55
2023/05/09 08:46:37;;;;;;;5.00;2.47;;;;;;;16.12;73.77;99634.09;5087630;28;20270;-53
2023/05/09 08:49:06;;;;;;;3.45;2.40;;;;;;;16.11;73.11;99637.59;5065864;28;20518;-53
2023/05/09 08:51:34;;;;;;;3.75;2.92;;;;;;;16.12;71.93;99643.69;5082083;28;20157;-57
2023/05/09 08:54:03;;;;;;;4.03;2.35;;;;;;;16.15;72.63;99649.63;5101471;27;20077;-58
2023/05/09 08:56:30;;;;;;;3.70;2.35;;;;;;;16.18;72.32;99646.94;5074192;28;20131;-58
2023/05/09 08:59:05;;;;;;;4.63;1.20;;;;;;;16.14;71.99;99636.66;5077896;28;20312;-55
2023/05/09 09:01:34;;;;;;;4.35;2.67;;;;;;;16.14;71.45;99639.28;5081504;28;20048;-57
2023/05/09 09:04:07;;;;;;;4.03;2.30;;;;;;;16.13;71.81;99633.19;5083609;28;20051;-55
2023/05/09 09:06:38;;;;;;;4.60;2.90;;;;;;;16.16;71.81;99640.94;5074893;28;20044;-56
2023/05/09 09:09:07;;;;;;;4.57;2.30;;;;;;;16.17;72.18;99632.16;5082936;28;20133;-58
2023/05/09 09:11:35;;;;;;;2.30;1.23;;;;;;;16.18;71.42;99633.88;5076123;28;20385;-58
2023/05/09 09:14:26;;;;;;;5.28;2.65;;;;;;;16.16;71.49;99630.47;5093279;28;20066;-56
2023/05/09 09:16:57;;;;;;;4.05;2.90;;;;;;;16.14;71.58;99631.44;5080910;28;20056;-58
2023/05/09 09:19:30;;;;;;;7.95;2.80;;;;;;;16.14;71.42;99627.03;5064316;28;20044;-58
2023/05/09 09:22:01;;;;;;;4.88;3.13;;;;;;;16.16;71.57;99630.47;5079145;28;20040;-56
2023/05/09 09:24:28;;;;;;;5.65;2.88;;;;;;;16.21;71.43;99632.06;5082917;28;20052;-54
2023/05/09 09:26:57;;;;;;;5.53;2.90;;;;;;;16.27;71.84;99631.84;5083144;28;20043;-60
2023/05/09 09:29:27;;;;;;;4.10;2.42;;;;;;;16.34;72.55;99633.38;5089692;28;20101;-57
2023/05/09 09:31:56;;;;;;;8.15;3.08;;;;;;;16.38;72.11;99637.59;5080260;28;20048;-57
2023/05/09 09:34:23;;;;;;;7.00;1.95;;;;;;;16.42;71.39;99639.19;5084704;28;20796;-55
2023/05/09 09:36:50;;;;;;;5.13;3.00;;;;;;;16.47;70.94;99633.81;5083965;28;20063;-54
2023/05/09 09:39:20;;;;;;;4.85;2.92;;;;;;;16.50;71.05;99638.06;5085446;28;20044;-55
2023/05/09 09:41:48;;;;;;;3.45;2.50;;;;;;;16.52;71.24;99633.66;5079743;28;20739;-60
2023/05/09 09:44:17;;;;;;;4.80;2.72;;;;;;;16.53;70.64;99632.75;5089184;28;20078;-55
2023/05/09 09:49:25;;;;;;;4.47;2.30;;;;;;;16.80;68.63;99624.84;5073097;27;20403;-58
2023/05/09 09:51:55;;;;;;;4.88;1.80;;;;;;;16.64;70.49;99633.22;4996591;28;20042;-57
2023/05/09 09:54:26;;;;;;;2.53;1.52;;;;;;;16.66;70.20;99634.06;5006547;28;20054;-61
2023/05/09 09:56:55;;;;;;;3.33;1.42;;;;;;;16.70;70.05;99630.41;4993480;28;20137;-57
2023/05/09 09:59:24;;;;;;;4.13;2.05;;;;;;;16.77;70.33;99635.41;4999436;28;20108;-59
2023/05/09 10:04:32;;;;;;;2.80;1.60;;;;;;;16.98;70.64;99635.56;5071536;27;20409;-58
2023/05/09 10:07:03;;;;;;;2.95;1.60;;;;;;;17.09;70.20;99641.28;5020474;28;20080;-55
2023/05/09 10:09:32;;;;;;;4.70;1.73;;;;;;;17.17;69.49;99639.25;5021595;28;20049;-54
2023/05/09 10:12:03;;;;;;;3.33;1.17;;;;;;;17.24;70.07;99639.88;5008392;28;20046;-55
2023/05/09 10:14:33;;;;;;;3.67;1.50;;;;;;;17.23;68.82;99642.56;5014800;28;20450;-57
2023/05/09 10:17:03;;;;;;;2.83;1.55;;;;;;;17.23;69.33;99634.69;5011077;28;20525;-55
2023/05/09 10:19:35;;;;;;;2.40;1.77;;;;;;;17.23;69.33;99640.78;5009363;28;20045;-53
2023/05/09 10:22:07;;;;;;;3.30;1.48;;;;;;;17.17;68.93;99639.25;5015465;28;20112;-54
2023/05/09 10:27:12;;;;;;;6.18;1.90;;;;;;;17.18;69.16;99640.97;5063806;27;20410;-55
2023/05/09 10:29:45;;;;;;;5.30;2.55;;;;;;;17.26;69.52;99637.22;5064716;28;20048;-58
2023/05/09 10:32:17;;;;;;;5.20;2.78;;;;;;;17.35;69.30;99642.09;5057061;28;20056;-60
2023/05/09 10:34:48;;;;;;;3.63;1.50;;;;;;;17.44;69.34;99636.53;5041713;28;20086;-59
2023/05/09 10:37:15;;;;;;;3.92;2.08;;;;;;;17.55;69.03;99632.63;5055731;28;20048;-58
2023/05/09 10:39:43;;;;;;;3.67;1.88;;;;;;;17.67;68.81;99621.66;5062693;28;20052;-61
2023/05/09 10:42:12;;;;;;;3.55;1.85;;;;;;;17.77;68.46;99629.19;5056273;28;20110;-61
2023/05/09 10:44:39;;;;;;;5.13;2.83;;;;;;;17.88;68.90;99624.38;5051267;28;20051;-60
2023/05/09 10:47:06;;;;;;;5.35;2.03;;;;;;;17.95;68.34;99620.59;5055877;28;20176;-58
2023/05/09 10:49:33;;;;;;;5.03;2.08;;;;;;;18.03;67.65;99622.06;5056658;28;20514;-55
2023/05/09 10:52:02;;;;;;;4.03;2.08;;;;;;;18.10;68.41;99613.03;5056361;28;20049;-52
2023/05/09 10:54:32;;;;;;;4.07;1.70;;;;;;;18.22;67.76;99617.78;5060851;28;20110;-53
2023/05/09 10:56:59;;;;;;;3.08;1.90;;;;;;;18.39;67.83;99608.34;5062661;28;20045;-53
2023/05/09 11:02:12;;;;;;;4.93;3.78;;;;;;;18.66;66.63;99597.59;5101355;27;20395;-57
2023/05/09 11:04:39;;;;;;;4.13;3.28;;;;;;;18.86;66.73;99599.34;5064588;28;20047;-51
2023/05/09 11:07:24;;;;;;;4.05;3.30;;;;;;;19.05;66.16;99597.66;5085507;28;20052;-57
2023/05/09 11:10:14;;;;;;;6.03;3.53;;;;;;;19.25;65.62;99587.13;5060686;28;20102;-53
2023/05/09 11:12:59;;;;;;;4.45;3.40;;;;;;;19.44;65.46;99581.00;5078587;28;20044;-59
2023/05/09 11:15:26;;;;;;;5.30;3.55;;;;;;;19.57;64.26;99585.66;5078920;28;20047;-58
2023/05/09 11:18:13;;;;;;;6.65;3.50;;;;;;;19.67;64.31;99581.69;5068030;28;20052;-53
2023/05/09 11:20:43;;;;;;;5.80;3.53;;;;;;;19.77;64.20;99580.31;5058029;28;20049;-55
2023/05/09 11:23:11;;;;;;;3.88;3.42;;;;;;;19.91;63.80;99573.53;5058820;28;20053;-57
2023/05/09 11:25:38;;;;;;;4.10;2.55;;;;;;;20.10;63.71;99567.38;5063641;28;20044;-56
2023/05/09 11:28:05;;;;;;;4.97;4.13;;;;;;;20.35;63.92;99566.13;5098017;28;20552;-58
2023/05/09 11:30:39;;;;;;;6.38;3.85;;;;;;;20.67;63.91;99561.00;5098968;28;20510;-57
2023/05/09 11:33:22;;;;;;;6.32;3.15;;;;;;;20.99;63.10;99566.34;5101262;28;20039;-57
2023/05/09 11:39:01;;;;;;;5.35;1.30;;;;;;;21.25;59.86;99556.16;5035018;27;20398;-59
2023/05/09 11:41:28;;;;;;;4.30;1.40;;;;;;;21.24;58.78;99554.44;5018291;28;20461;-58
2023/05/09 11:43:55;;;;;;;2.75;1.65;;;;;;;21.29;58.98;99555.06;5017636;28;20128;-58
2023/05/09 11:46:22;;;;;;;3.17;1.25;;;;;;;21.36;59.51;99541.53;5017500;28;20077;-58
2023/05/09 11:48:49;;;;;;;4.38;1.27;;;;;;;21.34;58.77;99548.69;5013466;28;20053;-59
2023/05/09 11:51:17;;;;;;;3.25;1.33;;;;;;;21.27;58.66;99548.16;5017808;28;20046;-58
2023/05/09 11:53:48;;;;;;;6.15;1.50;;;;;;;21.22;58.15;99543.16;5018691;28;20486;-62
2023/05/09 11:56:15;;;;;;;2.40;1.23;;;;;;;21.22;58.74;99535.25;5021624;28;20069;-61
2023/05/09 11:58:42;;;;;;;3.42;1.27;;;;;;;21.12;57.33;99544.59;5017878;28;20112;-63
2023/05/09 12:01:10;;;;;;;4.20;1.67;;;;;;;21.08;57.56;99538.66;5016292;28;20417;-61
2023/05/09 12:03:43;;;;;;;3.75;1.95;;;;;;;21.09;57.70;99540.34;5015408;28;20543;-62